createdAt,value
2022-08-21T00:01:23.861Z,99.90
2022-08-21T00:03:54.291Z,99.90
2022-08-21T00:06:22.070Z,99.90
2022-08-21T00:08:52.571Z,99.90
2022-08-21T00:11:20.582Z,99.90
2022-08-21T00:13:50.436Z,99.90
2022-08-21T00:16:28.014Z,99.90
2022-08-21T00:19:02.831Z,99.90
2022-08-21T00:21:31.811Z,99.90
2022-08-21T00:24:00.515Z,99.90
2022-08-21T00:26:28.011Z,99.90
2022-08-21T00:28:56.215Z,99.90
2022-08-21T00:31:28.336Z,99.90
2022-08-21T00:34:01.053Z,99.90
2022-08-21T00:36:38.746Z,99.90
2022-08-21T00:39:09.477Z,99.90
2022-08-21T00:41:49.407Z,99.90
2022-08-21T00:44:18.436Z,99.90
2022-08-21T00:46:49.936Z,99.90
2022-08-21T00:49:17.088Z,99.90
2022-08-21T00:52:04.215Z,99.90
2022-08-21T00:54:35.312Z,99.90
2022-08-21T00:57:10.504Z,99.90
2022-08-21T00:59:40.278Z,99.90
2022-08-21T01:02:11.578Z,99.90
2022-08-21T01:04:42.027Z,99.90
2022-08-21T01:07:21.868Z,99.90
2022-08-21T01:10:00.377Z,99.90
2022-08-21T01:12:38.332Z,99.90
2022-08-21T01:15:07.962Z,99.90
2022-08-21T01:17:44.975Z,99.90
2022-08-21T01:20:14.117Z,99.90
2022-08-21T01:22:41.364Z,99.90
2022-08-21T01:25:19.333Z,99.90
2022-08-21T01:27:50.875Z,99.90
2022-08-21T01:30:24.421Z,99.90
2022-08-21T01:32:52.613Z,99.90
2022-08-21T01:35:21.035Z,99.90
2022-08-21T01:37:49.337Z,99.90
2022-08-21T01:40:18.589Z,99.90
2022-08-21T01:42:46.907Z,99.90
2022-08-21T01:45:16.747Z,99.90
2022-08-21T01:47:45.417Z,99.90
2022-08-21T01:50:16.272Z,99.90
2022-08-21T01:52:43.465Z,99.90
2022-08-21T01:55:13.403Z,99.90
2022-08-21T01:57:40.637Z,99.90
2022-08-21T02:00:12.193Z,99.90
2022-08-21T02:02:41.515Z,99.90
2022-08-21T02:05:11.147Z,99.90
2022-08-21T02:07:40.642Z,99.90
2022-08-21T02:10:10.462Z,99.90
2022-08-21T02:12:38.043Z,99.90
2022-08-21T02:15:07.942Z,99.90
2022-08-21T02:17:51.157Z,99.90
2022-08-21T02:20:30.682Z,99.90
2022-08-21T02:22:58.067Z,99.90
2022-08-21T02:25:27.207Z,99.90
2022-08-21T02:27:55.288Z,99.90
2022-08-21T02:30:26.107Z,99.90
2022-08-21T02:32:53.368Z,99.90
2022-08-21T02:35:20.853Z,99.90
2022-08-21T02:37:49.628Z,99.90
2022-08-21T02:40:19.120Z,99.90
2022-08-21T02:42:46.563Z,99.90
2022-08-21T02:45:14.988Z,99.90
2022-08-21T02:47:52.112Z,99.90
2022-08-21T02:50:26.672Z,99.90
2022-08-21T02:52:55.337Z,99.90
2022-08-21T02:55:28.715Z,99.90
2022-08-21T02:57:57.562Z,99.90
2022-08-21T03:00:27.653Z,99.90
2022-08-21T03:02:56.687Z,99.90
2022-08-21T03:05:25.949Z,99.90
2022-08-21T03:07:53.858Z,99.90
2022-08-21T03:10:22.468Z,99.90
2022-08-21T03:12:50.750Z,99.90
2022-08-21T03:15:20.750Z,99.90
2022-08-21T03:17:48.833Z,99.90
2022-08-21T03:20:18.503Z,99.90
2022-08-21T03:22:56.476Z,99.90
2022-08-21T03:25:40.691Z,99.90
2022-08-21T03:28:12.957Z,99.90
2022-08-21T03:30:45.219Z,99.90
2022-08-21T03:33:15.417Z,99.90
2022-08-21T03:35:45.694Z,99.90
2022-08-21T03:38:16.402Z,99.90
2022-08-21T03:40:44.893Z,99.90
2022-08-21T03:43:12.316Z,99.90
2022-08-21T03:45:40.527Z,99.90
2022-08-21T03:48:09.269Z,99.90
2022-08-21T03:50:41.149Z,99.90
2022-08-21T03:53:17.386Z,99.90
2022-08-21T03:55:47.612Z,99.90
2022-08-21T03:58:17.542Z,99.90
2022-08-21T04:00:50.417Z,99.90
2022-08-21T04:03:18.777Z,99.90
2022-08-21T04:05:47.098Z,99.90
2022-08-21T04:08:15.793Z,99.90
2022-08-21T04:10:44.968Z,99.90
2022-08-21T04:13:12.588Z,99.90
2022-08-21T04:15:40.337Z,99.90
2022-08-21T04:18:07.492Z,99.90
2022-08-21T04:20:34.883Z,99.90
2022-08-21T04:23:03.888Z,99.90
2022-08-21T04:25:31.349Z,99.90
2022-08-21T04:27:59.277Z,99.90
2022-08-21T04:30:28.275Z,99.90
2022-08-21T04:32:58.389Z,99.90
2022-08-21T04:35:27.948Z,99.90
2022-08-21T04:37:55.508Z,99.90
2022-08-21T04:40:25.929Z,99.90
2022-08-21T04:42:57.880Z,99.90
2022-08-21T04:45:38.630Z,99.90
2022-08-21T04:48:13.295Z,99.90
2022-08-21T04:50:53.309Z,99.90
2022-08-21T04:53:25.617Z,99.90
2022-08-21T04:55:56.235Z,99.90
2022-08-21T04:58:27.535Z,99.90
2022-08-21T05:00:56.895Z,99.90
2022-08-21T05:03:24.905Z,99.90
2022-08-21T05:05:52.107Z,99.90
2022-08-21T05:08:22.297Z,99.90
2022-08-21T05:10:49.588Z,99.90
2022-08-21T05:13:17.676Z,99.90
2022-08-21T05:15:44.813Z,99.90
2022-08-21T05:18:12.476Z,99.90
2022-08-21T05:20:40.032Z,99.90
2022-08-21T05:23:14.236Z,99.90
2022-08-21T05:25:42.577Z,99.90
2022-08-21T05:28:09.773Z,99.90
2022-08-21T05:30:38.363Z,99.90
2022-08-21T05:33:07.477Z,99.90
2022-08-21T05:35:36.023Z,99.90
2022-08-21T05:38:04.257Z,99.90
2022-08-21T05:40:31.627Z,99.90
2022-08-21T05:43:00.344Z,99.90
2022-08-21T05:45:41.748Z,99.90
2022-08-21T05:48:19.302Z,99.90
2022-08-21T05:50:48.810Z,99.90
2022-08-21T05:53:17.860Z,99.90
2022-08-21T05:55:46.974Z,99.90
2022-08-21T05:58:20.268Z,99.90
2022-08-21T06:00:49.736Z,99.90
2022-08-21T06:03:24.378Z,99.90
2022-08-21T06:05:51.793Z,99.90
2022-08-21T06:08:20.020Z,99.90
2022-08-21T06:10:48.556Z,99.90
2022-08-21T06:13:17.724Z,99.90
2022-08-21T06:15:44.997Z,99.90
2022-08-21T06:18:12.928Z,99.90
2022-08-21T06:20:41.072Z,99.90
2022-08-21T06:23:08.840Z,99.90
2022-08-21T06:25:36.716Z,99.90
2022-08-21T06:28:07.142Z,99.90
2022-08-21T06:30:35.972Z,99.90
2022-08-21T06:33:03.804Z,99.90
2022-08-21T06:35:31.523Z,99.90
2022-08-21T06:37:59.067Z,99.90
2022-08-21T06:40:29.813Z,99.90
2022-08-21T06:43:06.716Z,99.90
2022-08-21T06:45:34.354Z,99.90
2022-08-21T06:48:01.447Z,99.90
2022-08-21T06:50:29.590Z,99.90
2022-08-21T06:53:10.977Z,99.90
2022-08-21T06:55:39.554Z,99.90
2022-08-21T06:58:07.597Z,99.90
2022-08-21T07:00:36.309Z,99.90
2022-08-21T07:03:03.505Z,99.90
2022-08-21T07:05:32.030Z,99.90
2022-08-21T07:07:59.701Z,99.90
2022-08-21T07:10:28.310Z,99.90
2022-08-21T07:13:00.504Z,99.90
2022-08-21T07:15:31.937Z,99.90
2022-08-21T07:18:00.606Z,99.90
2022-08-21T07:20:29.675Z,99.90
2022-08-21T07:23:05.877Z,99.90
2022-08-21T07:25:33.637Z,99.90
2022-08-21T07:28:00.897Z,99.90
2022-08-21T07:30:28.939Z,99.90
2022-08-21T07:32:57.116Z,99.90
2022-08-21T07:35:26.058Z,99.90
2022-08-21T07:37:53.190Z,99.90
2022-08-21T07:40:21.070Z,99.90
2022-08-21T07:42:52.634Z,99.90
2022-08-21T07:45:22.517Z,99.90
2022-08-21T07:47:53.149Z,99.90
2022-08-21T07:50:24.137Z,99.90
2022-08-21T07:52:51.292Z,99.90
2022-08-21T07:55:20.955Z,99.90
2022-08-21T07:57:48.453Z,99.90
2022-08-21T08:00:18.767Z,99.90
2022-08-21T08:02:47.807Z,99.90
2022-08-21T08:08:00.139Z,99.90
2022-08-21T08:10:28.308Z,99.90
2022-08-21T08:12:56.035Z,99.90
2022-08-21T08:15:26.954Z,99.90
2022-08-21T08:17:56.021Z,99.90
2022-08-21T08:20:24.092Z,99.90
2022-08-21T08:22:51.564Z,99.90
2022-08-21T08:25:20.297Z,99.90
2022-08-21T08:27:47.779Z,99.90
2022-08-21T08:30:17.567Z,99.90
2022-08-21T08:32:45.734Z,99.90
2022-08-21T08:35:12.992Z,99.90
2022-08-21T08:37:41.907Z,99.90
2022-08-21T08:40:35.316Z,99.90
2022-08-21T08:43:02.619Z,99.90
2022-08-21T08:45:34.352Z,99.90
2022-08-21T08:48:14.138Z,99.80
2022-08-21T08:50:56.679Z,99.90
2022-08-21T08:53:36.097Z,99.90
2022-08-21T08:56:05.177Z,99.90
2022-08-21T08:58:40.745Z,99.90
2022-08-21T09:01:16.925Z,99.90
2022-08-21T09:03:44.902Z,99.90
2022-08-21T09:06:33.816Z,99.90
2022-08-21T09:09:12.897Z,99.90
2022-08-21T09:11:54.077Z,99.90
2022-08-21T09:14:31.067Z,99.90
2022-08-21T09:17:10.949Z,99.90
2022-08-21T09:20:02.342Z,99.90
2022-08-21T09:22:40.476Z,99.90
2022-08-21T09:25:27.621Z,99.90
2022-08-21T09:27:55.755Z,99.90
2022-08-21T09:30:31.985Z,99.90
2022-08-21T09:32:59.566Z,99.90
2022-08-21T09:35:27.497Z,99.90
2022-08-21T09:38:06.755Z,99.90
2022-08-21T09:40:36.977Z,99.90
2022-08-21T09:43:26.533Z,99.90
2022-08-21T09:46:21.268Z,99.90
2022-08-21T09:48:51.933Z,99.90
2022-08-21T09:51:23.301Z,99.90
2022-08-21T09:53:54.742Z,99.90
2022-08-21T09:56:51.300Z,99.90
2022-08-21T09:59:37.406Z,99.90
2022-08-21T10:02:25.909Z,99.90
2022-08-21T10:05:02.602Z,99.90
2022-08-21T10:07:32.961Z,99.90
2022-08-21T10:10:22.213Z,99.90
2022-08-21T10:13:13.562Z,99.90
2022-08-21T10:15:49.742Z,99.90
2022-08-21T10:18:29.432Z,99.90
2022-08-21T10:21:09.114Z,99.90
2022-08-21T10:23:54.036Z,99.90
2022-08-21T10:26:41.608Z,99.90
2022-08-21T10:29:40.247Z,99.90
2022-08-21T10:32:35.451Z,97.80
2022-08-21T10:35:08.681Z,97.60
2022-08-21T10:38:00.526Z,97.20
2022-08-21T10:40:36.196Z,98.70
2022-08-21T10:43:36.302Z,99.30
2022-08-21T10:46:23.326Z,99.90
2022-08-21T10:49:09.866Z,99.60
2022-08-21T10:51:53.382Z,99.50
2022-08-21T10:55:01.708Z,99.20
2022-08-21T10:57:51.243Z,98.30
2022-08-21T11:00:40.154Z,98.30
2022-08-21T11:03:39.404Z,99.00
2022-08-21T11:06:15.790Z,97.90
2022-08-21T11:08:47.740Z,98.60
2022-08-21T11:11:31.023Z,96.50
2022-08-21T11:14:20.827Z,97.50
2022-08-21T11:16:54.381Z,96.40
2022-08-21T11:20:14.426Z,97.80
2022-08-21T11:23:23.927Z,97.40
2022-08-21T11:26:05.456Z,97.50
2022-08-21T11:28:52.043Z,97.10
2022-08-21T11:31:48.199Z,97.10
2022-08-21T11:35:01.596Z,96.50
2022-08-21T11:37:57.361Z,96.20
2022-08-21T11:41:02.362Z,95.90
2022-08-21T11:44:21.488Z,96.30
2022-08-21T11:47:36.202Z,96.20
2022-08-21T11:50:35.703Z,96.70
2022-08-21T11:53:25.307Z,96.30
2022-08-21T11:56:18.161Z,97.10
2022-08-21T11:59:17.946Z,97.20
2022-08-21T12:01:54.175Z,95.50
2022-08-21T12:04:43.862Z,97.40
2022-08-21T12:07:34.346Z,96.60
2022-08-21T12:10:06.551Z,97.40
2022-08-21T12:12:44.212Z,97.20
2022-08-21T12:15:28.457Z,96.30
2022-08-21T12:18:03.212Z,95.70
2022-08-21T12:20:51.407Z,95.70
2022-08-21T12:23:40.156Z,96.70
2022-08-21T12:26:31.968Z,97.10
2022-08-21T12:29:26.802Z,97.80
2022-08-21T12:32:14.670Z,97.20
2022-08-21T12:35:24.693Z,96.60
2022-08-21T12:38:54.655Z,96.90
2022-08-21T12:41:32.926Z,96.60
2022-08-21T12:44:13.881Z,97.00
2022-08-21T12:47:03.388Z,97.50
2022-08-21T12:49:42.041Z,97.40
2022-08-21T12:52:39.374Z,97.40
2022-08-21T12:55:17.537Z,97.20
2022-08-21T12:57:47.662Z,97.50
2022-08-21T13:00:27.941Z,97.30
2022-08-21T13:02:58.993Z,98.10
2022-08-21T13:05:40.855Z,97.50
2022-08-21T13:08:33.741Z,97.20
2022-08-21T13:11:09.121Z,97.20
2022-08-21T13:13:45.731Z,97.00
2022-08-21T13:16:28.952Z,97.20
2022-08-21T13:19:09.017Z,98.00
2022-08-21T13:21:45.776Z,97.50
2022-08-21T13:24:42.699Z,97.50
2022-08-21T13:27:24.288Z,96.80
2022-08-21T13:30:17.887Z,96.40
2022-08-21T13:32:54.526Z,96.90
2022-08-21T13:35:30.501Z,96.80
2022-08-21T13:38:01.297Z,97.00
2022-08-21T13:40:36.281Z,97.40
2022-08-21T13:43:04.411Z,97.30
2022-08-21T13:45:34.045Z,96.60
2022-08-21T13:48:42.141Z,97.20
2022-08-21T13:51:16.902Z,96.80
2022-08-21T13:53:55.506Z,97.00
2022-08-21T13:56:45.006Z,96.90
2022-08-21T13:59:15.921Z,97.30
2022-08-21T14:02:23.818Z,96.80
2022-08-21T14:05:04.708Z,97.10
2022-08-21T14:07:40.339Z,97.00
2022-08-21T14:10:30.814Z,96.70
2022-08-21T14:13:04.762Z,97.00
2022-08-21T14:15:34.762Z,97.00
2022-08-21T14:18:29.772Z,97.10
2022-08-21T14:21:10.325Z,96.70
2022-08-21T14:23:47.615Z,96.70
2022-08-21T14:26:21.178Z,96.30
2022-08-21T14:28:51.459Z,95.60
2022-08-21T14:31:22.289Z,96.30
2022-08-21T14:33:51.053Z,96.90
2022-08-21T14:36:21.047Z,96.80
2022-08-21T14:38:49.878Z,97.00
2022-08-21T14:41:34.734Z,96.80
2022-08-21T14:44:09.476Z,96.20
2022-08-21T14:46:55.227Z,97.30
2022-08-21T14:49:32.107Z,97.80
2022-08-21T14:52:09.053Z,98.00
2022-08-21T14:54:38.479Z,97.10
2022-08-21T14:57:11.492Z,97.10
2022-08-21T14:59:41.561Z,96.70
2022-08-21T15:02:17.795Z,96.80
2022-08-21T15:04:50.255Z,96.00
2022-08-21T15:07:20.118Z,94.90
2022-08-21T15:09:48.737Z,94.80
2022-08-21T15:12:17.403Z,94.40
2022-08-21T15:14:46.972Z,94.90
2022-08-21T15:17:15.782Z,94.20
2022-08-21T15:19:46.043Z,94.50
2022-08-21T15:22:18.584Z,94.10
2022-08-21T15:24:47.793Z,94.60
2022-08-21T15:27:22.547Z,94.30
2022-08-21T15:29:54.813Z,94.70
2022-08-21T15:32:30.813Z,94.40
2022-08-21T15:35:06.774Z,93.90
2022-08-21T15:37:35.458Z,93.60
2022-08-21T15:40:15.290Z,94.50
2022-08-21T15:42:52.372Z,94.10
2022-08-21T15:45:20.878Z,94.10
2022-08-21T15:47:50.892Z,93.90
2022-08-21T15:50:28.617Z,93.80
2022-08-21T15:52:56.293Z,93.80
2022-08-21T15:55:25.812Z,94.00
2022-08-21T15:57:57.500Z,94.30
2022-08-21T16:00:27.760Z,94.10
2022-08-21T16:03:01.752Z,94.00
2022-08-21T16:05:40.503Z,93.90
2022-08-21T16:08:12.082Z,94.00
2022-08-21T16:10:41.664Z,94.10
2022-08-21T16:13:28.634Z,94.20
2022-08-21T16:15:58.963Z,93.70
2022-08-21T16:18:29.398Z,94.40
2022-08-21T16:21:07.473Z,94.00
2022-08-21T16:23:39.075Z,93.90
2022-08-21T16:26:20.773Z,93.50
2022-08-21T16:29:03.398Z,93.80
2022-08-21T16:31:34.134Z,93.40
2022-08-21T16:34:08.492Z,93.40
2022-08-21T16:36:35.528Z,93.70
2022-08-21T16:39:05.529Z,93.70
2022-08-21T16:41:36.479Z,94.00
2022-08-21T16:44:06.908Z,94.10
2022-08-21T16:46:43.372Z,94.10
2022-08-21T16:49:11.582Z,94.30
2022-08-21T16:51:40.207Z,93.90
2022-08-21T16:54:10.472Z,94.60
2022-08-21T16:56:44.560Z,93.60
2022-08-21T16:59:17.711Z,94.10
2022-08-21T17:01:46.802Z,93.70
2022-08-21T17:04:15.755Z,93.90
2022-08-21T17:06:46.851Z,94.00
2022-08-21T17:09:15.641Z,93.70
2022-08-21T17:11:49.452Z,94.10
2022-08-21T17:14:24.093Z,93.60
2022-08-21T17:17:00.431Z,93.90
2022-08-21T17:19:27.558Z,94.10
2022-08-21T17:21:56.552Z,94.20
2022-08-21T17:24:25.338Z,94.40
2022-08-21T17:26:59.002Z,94.80
2022-08-21T17:29:41.623Z,94.50
2022-08-21T17:32:18.578Z,94.60
2022-08-21T17:34:47.456Z,94.40
2022-08-21T17:37:36.537Z,94.90
2022-08-21T17:40:15.743Z,94.50
2022-08-21T17:42:47.537Z,94.60
2022-08-21T17:45:21.757Z,94.50
2022-08-21T17:47:52.212Z,94.90
2022-08-21T17:50:23.189Z,94.70
2022-08-21T17:53:11.883Z,94.80
2022-08-21T17:55:43.249Z,94.80
2022-08-21T17:58:22.562Z,95.20
2022-08-21T18:00:51.082Z,95.10
2022-08-21T18:03:38.228Z,95.10
2022-08-21T18:06:18.175Z,95.10
2022-08-21T18:08:53.173Z,95.40
2022-08-21T18:11:28.206Z,95.50
2022-08-21T18:14:06.580Z,95.50
2022-08-21T18:16:39.007Z,95.50
2022-08-21T18:19:18.893Z,95.40
2022-08-21T18:21:55.798Z,95.60
2022-08-21T18:24:31.702Z,95.70
2022-08-21T18:27:01.932Z,96.00
2022-08-21T18:29:32.441Z,95.90
2022-08-21T18:32:04.263Z,95.80
2022-08-21T18:34:50.773Z,96.00
2022-08-21T18:37:20.017Z,96.10
2022-08-21T18:39:57.153Z,96.50
2022-08-21T18:42:34.224Z,96.10
2022-08-21T18:45:06.547Z,96.40
2022-08-21T18:47:44.913Z,96.70
2022-08-21T18:53:18.020Z,96.90
2022-08-21T18:55:53.092Z,97.10
2022-08-21T18:58:21.757Z,97.10
2022-08-21T19:00:57.096Z,97.00
2022-08-21T19:03:25.754Z,97.00
2022-08-21T19:05:55.865Z,97.10
2022-08-21T19:08:27.486Z,97.40
2022-08-21T19:10:59.952Z,97.60
2022-08-21T19:13:32.234Z,97.60
2022-08-21T19:16:09.659Z,97.70
2022-08-21T19:18:44.877Z,97.60
2022-08-21T19:21:14.954Z,97.40
2022-08-21T19:23:44.368Z,97.20
2022-08-21T19:26:17.367Z,97.10
2022-08-21T19:28:53.629Z,97.40
2022-08-21T19:31:32.537Z,97.40
2022-08-21T19:34:22.627Z,97.40
2022-08-21T19:36:56.828Z,97.50
2022-08-21T19:39:33.147Z,97.40
2022-08-21T19:42:01.817Z,97.60
2022-08-21T19:44:31.557Z,97.30
2022-08-21T19:47:05.539Z,97.20
2022-08-21T19:49:40.973Z,97.20
2022-08-21T19:52:13.945Z,97.30
2022-08-21T19:54:44.912Z,97.40
2022-08-21T19:57:15.052Z,97.20
2022-08-21T19:59:49.606Z,97.60
2022-08-21T20:02:22.088Z,97.70
2022-08-21T20:04:55.149Z,97.60
2022-08-21T20:07:26.719Z,97.80
2022-08-21T20:09:56.991Z,97.90
2022-08-21T20:12:26.248Z,97.90
2022-08-21T20:15:09.003Z,98.00
2022-08-21T20:17:39.619Z,98.20
2022-08-21T20:20:11.508Z,98.10
2022-08-21T20:22:42.314Z,98.00
2022-08-21T20:25:10.893Z,98.10
2022-08-21T20:27:40.998Z,98.50
2022-08-21T20:30:22.906Z,98.30
2022-08-21T20:33:09.954Z,98.30
2022-08-21T20:35:40.629Z,98.40
2022-08-21T20:38:09.017Z,98.50
2022-08-21T20:40:39.438Z,99.00
2022-08-21T20:43:12.894Z,98.90
2022-08-21T20:45:50.358Z,99.30
2022-08-21T20:48:49.144Z,99.30
2022-08-21T20:51:55.663Z,97.10
2022-08-21T20:54:50.274Z,98.60
2022-08-21T20:57:45.749Z,97.10
2022-08-21T21:00:26.999Z,99.90
2022-08-21T21:03:21.275Z,99.90
2022-08-21T21:06:13.868Z,99.80
2022-08-21T21:09:24.172Z,99.90
2022-08-21T21:12:07.223Z,99.90
2022-08-21T21:14:59.636Z,95.80
2022-08-21T21:17:41.128Z,95.30
2022-08-21T21:20:14.054Z,95.70
2022-08-21T21:23:14.079Z,95.70
2022-08-21T21:26:29.199Z,98.10
2022-08-21T21:32:24.239Z,99.90
2022-08-21T21:35:01.338Z,99.90
2022-08-21T21:37:58.663Z,99.90
2022-08-21T21:41:12.771Z,99.90
2022-08-21T21:43:54.619Z,99.90
2022-08-21T21:46:48.653Z,99.90
2022-08-21T21:49:26.952Z,99.90
2022-08-21T21:52:25.918Z,99.90
2022-08-21T21:55:09.958Z,99.90
2022-08-21T21:58:02.007Z,99.90
2022-08-21T22:00:55.252Z,99.90
2022-08-21T22:04:03.716Z,99.90
2022-08-21T22:06:54.434Z,99.90
2022-08-21T22:09:51.442Z,99.90
2022-08-21T22:13:09.669Z,99.90
2022-08-21T22:15:41.631Z,99.90
2022-08-21T22:18:28.189Z,99.90
2022-08-21T22:21:40.879Z,99.90
2022-08-21T22:24:42.338Z,99.90
2022-08-21T22:27:40.253Z,99.90
2022-08-21T22:30:17.515Z,99.90
2022-08-21T22:33:04.449Z,99.90
2022-08-21T22:35:41.063Z,99.90
2022-08-21T22:38:33.625Z,99.90
2022-08-21T22:41:31.749Z,99.90
2022-08-21T22:44:12.152Z,99.90
2022-08-21T22:47:12.688Z,99.90
2022-08-21T22:49:51.429Z,99.90
2022-08-21T22:52:57.649Z,99.90
2022-08-21T22:55:55.868Z,99.90
2022-08-21T22:58:44.276Z,99.90
2022-08-21T23:01:34.808Z,99.90
2022-08-21T23:04:34.207Z,99.90
2022-08-21T23:07:05.957Z,99.90
2022-08-21T23:09:53.317Z,99.90
2022-08-21T23:12:33.918Z,99.90
2022-08-21T23:15:10.408Z,99.90
2022-08-21T23:18:12.353Z,99.90
2022-08-21T23:21:18.268Z,99.90
2022-08-21T23:24:19.402Z,99.90
2022-08-21T23:27:13.394Z,99.90
2022-08-21T23:30:18.757Z,99.70
2022-08-21T23:33:39.733Z,99.70
2022-08-21T23:36:55.042Z,99.90
2022-08-21T23:40:14.915Z,99.80
2022-08-21T23:43:21.148Z,99.90
2022-08-21T23:46:33.450Z,99.90
2022-08-21T23:49:44.139Z,99.90
2022-08-21T23:52:52.560Z,99.90
2022-08-21T23:55:44.133Z,99.90
2022-08-21T23:58:52.033Z,99.90
